sensor_id;sensor_type;location;lat;lon;timestamp;P1;durP1;ratioP1;P2;durP2;ratioP2
66112;SDS011;52893;52.870;5.822;2023-10-19T00:01:31;12.18;;;4.88;;
66112;SDS011;52893;52.870;5.822;2023-10-19T00:04:00;9.30;;;4.57;;
66112;SDS011;52893;52.870;5.822;2023-10-19T00:06:27;6.47;;;3.45;;
66112;SDS011;52893;52.870;5.822;2023-10-19T00:08:54;9.73;;;4.20;;
66112;SDS011;52893;52.870;5.822;2023-10-19T00:11:20;8.27;;;3.13;;
66112;SDS011;52893;52.870;5.822;2023-10-19T00:13:49;6.50;;;4.38;;
66112;SDS011;52893;52.870;5.822;2023-10-19T00:16:16;12.73;;;5.25;;
66112;SDS011;52893;52.870;5.822;2023-10-19T00:18:49;4.15;;;2.72;;
66112;SDS011;52893;52.870;5.822;2023-10-19T00:21:16;4.15;;;3.13;;
66112;SDS011;52893;52.870;5.822;2023-10-19T00:23:46;11.45;;;5.18;;
66112;SDS011;52893;52.870;5.822;2023-10-19T00:26:14;7.40;;;3.63;;
66112;SDS011;52893;52.870;5.822;2023-10-19T00:28:53;8.70;;;4.00;;
66112;SDS011;52893;52.870;5.822;2023-10-19T00:31:21;11.75;;;3.65;;
66112;SDS011;52893;52.870;5.822;2023-10-19T00:33:50;9.20;;;4.72;;
66112;SDS011;52893;52.870;5.822;2023-10-19T00:36:17;9.07;;;4.45;;
66112;SDS011;52893;52.870;5.822;2023-10-19T00:38:46;8.70;;;3.38;;
66112;SDS011;52893;52.870;5.822;2023-10-19T00:41:19;8.57;;;3.70;;
66112;SDS011;52893;52.870;5.822;2023-10-19T00:43:48;8.30;;;4.75;;
66112;SDS011;52893;52.870;5.822;2023-10-19T00:46:16;3.22;;;2.50;;
66112;SDS011;52893;52.870;5.822;2023-10-19T00:48:48;10.40;;;3.80;;
66112;SDS011;52893;52.870;5.822;2023-10-19T00:51:20;8.63;;;3.83;;
66112;SDS011;52893;52.870;5.822;2023-10-19T00:54:08;7.88;;;3.47;;
66112;SDS011;52893;52.870;5.822;2023-10-19T00:56:40;9.77;;;5.53;;
66112;SDS011;52893;52.870;5.822;2023-10-19T00:59:12;4.78;;;3.45;;
66112;SDS011;52893;52.870;5.822;2023-10-19T01:01:40;10.55;;;4.10;;
66112;SDS011;52893;52.870;5.822;2023-10-19T01:04:16;6.93;;;3.95;;
66112;SDS011;52893;52.870;5.822;2023-10-19T01:06:49;8.63;;;3.78;;
66112;SDS011;52893;52.870;5.822;2023-10-19T01:09:27;7.13;;;3.88;;
66112;SDS011;52893;52.870;5.822;2023-10-19T01:11:54;7.05;;;3.85;;
66112;SDS011;52893;52.870;5.822;2023-10-19T01:14:26;7.18;;;4.70;;
66112;SDS011;52893;52.870;5.822;2023-10-19T01:16:55;9.85;;;4.80;;
66112;SDS011;52893;52.870;5.822;2023-10-19T01:19:25;5.10;;;3.38;;
66112;SDS011;52893;52.870;5.822;2023-10-19T01:21:53;6.20;;;3.92;;
66112;SDS011;52893;52.870;5.822;2023-10-19T01:24:30;5.07;;;3.40;;
66112;SDS011;52893;52.870;5.822;2023-10-19T01:27:06;9.20;;;4.10;;
66112;SDS011;52893;52.870;5.822;2023-10-19T01:29:36;7.25;;;3.45;;
66112;SDS011;52893;52.870;5.822;2023-10-19T01:32:06;6.85;;;3.80;;
66112;SDS011;52893;52.870;5.822;2023-10-19T01:34:34;6.75;;;3.47;;
66112;SDS011;52893;52.870;5.822;2023-10-19T01:37:03;9.18;;;4.00;;
66112;SDS011;52893;52.870;5.822;2023-10-19T01:39:32;6.75;;;3.30;;
66112;SDS011;52893;52.870;5.822;2023-10-19T01:42:01;7.70;;;4.25;;
66112;SDS011;52893;52.870;5.822;2023-10-19T01:44:30;4.82;;;3.53;;
66112;SDS011;52893;52.870;5.822;2023-10-19T01:46:57;8.60;;;4.47;;
66112;SDS011;52893;52.870;5.822;2023-10-19T01:49:26;6.80;;;3.53;;
66112;SDS011;52893;52.870;5.822;2023-10-19T01:51:54;5.57;;;2.90;;
66112;SDS011;52893;52.870;5.822;2023-10-19T01:54:22;4.28;;;2.67;;
66112;SDS011;52893;52.870;5.822;2023-10-19T01:56:52;3.67;;;2.08;;
66112;SDS011;52893;52.870;5.822;2023-10-19T01:59:22;4.35;;;2.95;;
66112;SDS011;52893;52.870;5.822;2023-10-19T02:01:52;5.30;;;2.78;;
66112;SDS011;52893;52.870;5.822;2023-10-19T02:04:20;6.18;;;2.88;;
66112;SDS011;52893;52.870;5.822;2023-10-19T02:06:47;6.30;;;3.63;;
66112;SDS011;52893;52.870;5.822;2023-10-19T02:09:17;4.15;;;2.65;;
66112;SDS011;52893;52.870;5.822;2023-10-19T02:11:48;5.28;;;2.78;;
66112;SDS011;52893;52.870;5.822;2023-10-19T02:14:19;3.78;;;2.20;;
66112;SDS011;52893;52.870;5.822;2023-10-19T02:16:48;4.35;;;2.20;;
66112;SDS011;52893;52.870;5.822;2023-10-19T02:19:16;5.03;;;3.03;;
66112;SDS011;52893;52.870;5.822;2023-10-19T02:21:45;3.45;;;2.08;;
66112;SDS011;52893;52.870;5.822;2023-10-19T02:24:14;7.28;;;3.45;;
66112;SDS011;52893;52.870;5.822;2023-10-19T02:26:41;4.03;;;2.72;;
66112;SDS011;52893;52.870;5.822;2023-10-19T02:29:09;4.18;;;2.67;;
66112;SDS011;52893;52.870;5.822;2023-10-19T02:31:40;6.97;;;3.40;;
66112;SDS011;52893;52.870;5.822;2023-10-19T02:34:07;1.35;;;1.25;;
66112;SDS011;52893;52.870;5.822;2023-10-19T02:36:36;2.95;;;1.52;;
66112;SDS011;52893;52.870;5.822;2023-10-19T02:39:05;4.47;;;2.75;;
66112;SDS011;52893;52.870;5.822;2023-10-19T02:41:34;6.65;;;2.80;;
66112;SDS011;52893;52.870;5.822;2023-10-19T02:44:01;3.17;;;2.17;;
66112;SDS011;52893;52.870;5.822;2023-10-19T02:46:31;4.22;;;2.85;;
66112;SDS011;52893;52.870;5.822;2023-10-19T02:49:01;3.92;;;2.67;;
66112;SDS011;52893;52.870;5.822;2023-10-19T02:51:30;5.53;;;1.95;;
66112;SDS011;52893;52.870;5.822;2023-10-19T02:53:57;2.67;;;2.13;;
66112;SDS011;52893;52.870;5.822;2023-10-19T02:56:28;2.70;;;2.05;;
66112;SDS011;52893;52.870;5.822;2023-10-19T02:58:56;5.20;;;2.67;;
66112;SDS011;52893;52.870;5.822;2023-10-19T03:01:28;4.00;;;2.53;;
66112;SDS011;52893;52.870;5.822;2023-10-19T03:03:57;5.78;;;2.47;;
66112;SDS011;52893;52.870;5.822;2023-10-19T03:06:27;4.05;;;1.88;;
66112;SDS011;52893;52.870;5.822;2023-10-19T03:08:58;4.07;;;2.40;;
66112;SDS011;52893;52.870;5.822;2023-10-19T03:11:28;2.53;;;2.10;;
66112;SDS011;52893;52.870;5.822;2023-10-19T03:13:54;2.50;;;2.00;;
66112;SDS011;52893;52.870;5.822;2023-10-19T03:16:23;5.03;;;2.78;;
66112;SDS011;52893;52.870;5.822;2023-10-19T03:18:49;7.55;;;1.65;;
66112;SDS011;52893;52.870;5.822;2023-10-19T03:21:17;3.83;;;2.47;;
66112;SDS011;52893;52.870;5.822;2023-10-19T03:23:46;3.72;;;2.33;;
66112;SDS011;52893;52.870;5.822;2023-10-19T03:26:13;4.22;;;2.72;;
66112;SDS011;52893;52.870;5.822;2023-10-19T03:28:53;4.65;;;2.65;;
66112;SDS011;52893;52.870;5.822;2023-10-19T03:31:28;3.50;;;2.55;;
66112;SDS011;52893;52.870;5.822;2023-10-19T03:33:55;3.22;;;2.13;;
66112;SDS011;52893;52.870;5.822;2023-10-19T03:36:25;7.30;;;3.60;;
66112;SDS011;52893;52.870;5.822;2023-10-19T03:38:55;4.03;;;2.47;;
66112;SDS011;52893;52.870;5.822;2023-10-19T03:41:27;4.30;;;2.92;;
66112;SDS011;52893;52.870;5.822;2023-10-19T03:43:56;2.45;;;1.80;;
66112;SDS011;52893;52.870;5.822;2023-10-19T03:46:24;3.97;;;2.60;;
66112;SDS011;52893;52.870;5.822;2023-10-19T03:48:55;3.25;;;2.03;;
66112;SDS011;52893;52.870;5.822;2023-10-19T03:51:30;5.15;;;3.03;;
66112;SDS011;52893;52.870;5.822;2023-10-19T03:54:07;4.95;;;2.85;;
66112;SDS011;52893;52.870;5.822;2023-10-19T03:56:44;2.45;;;1.80;;
66112;SDS011;52893;52.870;5.822;2023-10-19T03:59:13;4.60;;;2.33;;
66112;SDS011;52893;52.870;5.822;2023-10-19T04:01:41;5.30;;;2.47;;
66112;SDS011;52893;52.870;5.822;2023-10-19T04:04:09;4.20;;;2.67;;
66112;SDS011;52893;52.870;5.822;2023-10-19T04:06:36;5.38;;;2.72;;
66112;SDS011;52893;52.870;5.822;2023-10-19T04:09:04;2.22;;;1.75;;
66112;SDS011;52893;52.870;5.822;2023-10-19T04:11:32;6.57;;;3.25;;
66112;SDS011;52893;52.870;5.822;2023-10-19T04:14:13;3.35;;;2.42;;
66112;SDS011;52893;52.870;5.822;2023-10-19T04:16:42;6.82;;;2.88;;
66112;SDS011;52893;52.870;5.822;2023-10-19T04:19:10;5.28;;;3.08;;
66112;SDS011;52893;52.870;5.822;2023-10-19T04:21:37;5.10;;;3.20;;
66112;SDS011;52893;52.870;5.822;2023-10-19T04:24:05;4.75;;;2.33;;
66112;SDS011;52893;52.870;5.822;2023-10-19T04:26:34;3.53;;;2.50;;
66112;SDS011;52893;52.870;5.822;2023-10-19T04:29:03;3.10;;;2.42;;
66112;SDS011;52893;52.870;5.822;2023-10-19T04:31:35;6.05;;;2.95;;
66112;SDS011;52893;52.870;5.822;2023-10-19T04:34:13;3.22;;;1.73;;
66112;SDS011;52893;52.870;5.822;2023-10-19T04:36:43;2.88;;;2.55;;
66112;SDS011;52893;52.870;5.822;2023-10-19T04:39:11;2.50;;;1.65;;
66112;SDS011;52893;52.870;5.822;2023-10-19T04:41:40;4.63;;;2.50;;
66112;SDS011;52893;52.870;5.822;2023-10-19T04:44:08;5.43;;;3.20;;
66112;SDS011;52893;52.870;5.822;2023-10-19T04:46:35;5.68;;;3.17;;
66112;SDS011;52893;52.870;5.822;2023-10-19T04:49:02;5.40;;;2.88;;
66112;SDS011;52893;52.870;5.822;2023-10-19T04:51:30;4.88;;;2.40;;
66112;SDS011;52893;52.870;5.822;2023-10-19T04:53:57;6.18;;;3.25;;
66112;SDS011;52893;52.870;5.822;2023-10-19T04:56:24;5.60;;;2.60;;
66112;SDS011;52893;52.870;5.822;2023-10-19T04:58:53;3.00;;;2.25;;
66112;SDS011;52893;52.870;5.822;2023-10-19T05:01:20;4.25;;;2.67;;
66112;SDS011;52893;52.870;5.822;2023-10-19T05:03:48;3.53;;;2.33;;
66112;SDS011;52893;52.870;5.822;2023-10-19T05:06:15;5.03;;;3.72;;
66112;SDS011;52893;52.870;5.822;2023-10-19T05:08:43;7.28;;;3.45;;
66112;SDS011;52893;52.870;5.822;2023-10-19T05:11:12;6.20;;;3.45;;
66112;SDS011;52893;52.870;5.822;2023-10-19T05:13:39;9.80;;;4.20;;
66112;SDS011;52893;52.870;5.822;2023-10-19T05:16:08;6.10;;;3.53;;
66112;SDS011;52893;52.870;5.822;2023-10-19T05:18:35;4.85;;;3.28;;
66112;SDS011;52893;52.870;5.822;2023-10-19T05:21:03;8.10;;;4.57;;
66112;SDS011;52893;52.870;5.822;2023-10-19T05:23:31;6.40;;;3.50;;
66112;SDS011;52893;52.870;5.822;2023-10-19T05:25:59;5.20;;;3.10;;
66112;SDS011;52893;52.870;5.822;2023-10-19T05:28:28;6.90;;;4.07;;
66112;SDS011;52893;52.870;5.822;2023-10-19T05:30:55;8.15;;;4.30;;
66112;SDS011;52893;52.870;5.822;2023-10-19T05:33:24;6.35;;;3.97;;
66112;SDS011;52893;52.870;5.822;2023-10-19T05:35:51;7.55;;;4.57;;
66112;SDS011;52893;52.870;5.822;2023-10-19T05:38:18;6.65;;;3.47;;
66112;SDS011;52893;52.870;5.822;2023-10-19T05:40:48;7.18;;;3.67;;
66112;SDS011;52893;52.870;5.822;2023-10-19T05:43:15;7.28;;;4.20;;
66112;SDS011;52893;52.870;5.822;2023-10-19T05:45:43;6.47;;;4.10;;
66112;SDS011;52893;52.870;5.822;2023-10-19T05:48:10;7.00;;;3.95;;
66112;SDS011;52893;52.870;5.822;2023-10-19T05:50:39;7.30;;;3.20;;
66112;SDS011;52893;52.870;5.822;2023-10-19T05:53:08;7.25;;;4.22;;
66112;SDS011;52893;52.870;5.822;2023-10-19T05:55:35;8.65;;;4.57;;
66112;SDS011;52893;52.870;5.822;2023-10-19T05:58:05;9.45;;;4.65;;
66112;SDS011;52893;52.870;5.822;2023-10-19T06:00:32;8.68;;;4.53;;
66112;SDS011;52893;52.870;5.822;2023-10-19T06:03:00;10.82;;;5.40;;
66112;SDS011;52893;52.870;5.822;2023-10-19T06:05:28;7.13;;;3.63;;
66112;SDS011;52893;52.870;5.822;2023-10-19T06:07:57;11.27;;;5.60;;
66112;SDS011;52893;52.870;5.822;2023-10-19T06:10:27;12.00;;;4.60;;
66112;SDS011;52893;52.870;5.822;2023-10-19T06:12:55;9.43;;;4.78;;
66112;SDS011;52893;52.870;5.822;2023-10-19T06:15:23;8.80;;;4.72;;
66112;SDS011;52893;52.870;5.822;2023-10-19T06:17:50;8.45;;;4.53;;
66112;SDS011;52893;52.870;5.822;2023-10-19T06:20:18;9.02;;;4.70;;
66112;SDS011;52893;52.870;5.822;2023-10-19T06:22:52;8.73;;;4.60;;
66112;SDS011;52893;52.870;5.822;2023-10-19T06:25:23;8.77;;;4.65;;
66112;SDS011;52893;52.870;5.822;2023-10-19T06:27:52;9.75;;;4.97;;
66112;SDS011;52893;52.870;5.822;2023-10-19T06:30:22;16.65;;;5.65;;
66112;SDS011;52893;52.870;5.822;2023-10-19T06:32:51;8.35;;;4.80;;
66112;SDS011;52893;52.870;5.822;2023-10-19T06:35:20;8.35;;;4.32;;
66112;SDS011;52893;52.870;5.822;2023-10-19T06:37:49;14.90;;;5.25;;
66112;SDS011;52893;52.870;5.822;2023-10-19T06:40:16;9.48;;;5.03;;
66112;SDS011;52893;52.870;5.822;2023-10-19T06:42:45;9.88;;;5.35;;
66112;SDS011;52893;52.870;5.822;2023-10-19T06:45:14;9.60;;;4.50;;
66112;SDS011;52893;52.870;5.822;2023-10-19T06:47:43;11.85;;;5.57;;
66112;SDS011;52893;52.870;5.822;2023-10-19T06:50:11;10.18;;;5.13;;
66112;SDS011;52893;52.870;5.822;2023-10-19T06:52:41;11.63;;;5.82;;
66112;SDS011;52893;52.870;5.822;2023-10-19T06:55:09;9.93;;;4.93;;
66112;SDS011;52893;52.870;5.822;2023-10-19T06:57:40;10.52;;;5.13;;
66112;SDS011;52893;52.870;5.822;2023-10-19T07:00:11;10.30;;;5.22;;
66112;SDS011;52893;52.870;5.822;2023-10-19T07:05:09;13.52;;;5.72;;
66112;SDS011;52893;52.870;5.822;2023-10-19T07:07:39;10.10;;;5.30;;
66112;SDS011;52893;52.870;5.822;2023-10-19T07:10:08;9.85;;;4.35;;
66112;SDS011;52893;52.870;5.822;2023-10-19T07:12:38;13.65;;;6.03;;
66112;SDS011;52893;52.870;5.822;2023-10-19T07:15:07;12.63;;;5.88;;
66112;SDS011;52893;52.870;5.822;2023-10-19T07:17:40;10.38;;;5.45;;
66112;SDS011;52893;52.870;5.822;2023-10-19T07:20:08;11.27;;;5.25;;
66112;SDS011;52893;52.870;5.822;2023-10-19T07:22:48;12.32;;;5.43;;
66112;SDS011;52893;52.870;5.822;2023-10-19T07:25:15;10.57;;;5.82;;
66112;SDS011;52893;52.870;5.822;2023-10-19T07:27:46;12.25;;;5.43;;
66112;SDS011;52893;52.870;5.822;2023-10-19T07:30:14;10.52;;;4.82;;
66112;SDS011;52893;52.870;5.822;2023-10-19T07:32:48;11.90;;;5.68;;
66112;SDS011;52893;52.870;5.822;2023-10-19T07:35:20;10.90;;;5.70;;
66112;SDS011;52893;52.870;5.822;2023-10-19T07:37:48;13.00;;;5.70;;
66112;SDS011;52893;52.870;5.822;2023-10-19T07:40:16;11.15;;;5.30;;
66112;SDS011;52893;52.870;5.822;2023-10-19T07:42:43;15.32;;;5.63;;
66112;SDS011;52893;52.870;5.822;2023-10-19T07:45:12;10.88;;;5.85;;
66112;SDS011;52893;52.870;5.822;2023-10-19T07:47:39;10.77;;;5.20;;
66112;SDS011;52893;52.870;5.822;2023-10-19T07:50:08;12.48;;;5.60;;
66112;SDS011;52893;52.870;5.822;2023-10-19T07:52:38;12.50;;;5.38;;
66112;SDS011;52893;52.870;5.822;2023-10-19T07:55:06;12.30;;;5.68;;
66112;SDS011;52893;52.870;5.822;2023-10-19T07:57:33;12.32;;;5.85;;
66112;SDS011;52893;52.870;5.822;2023-10-19T08:00:01;16.65;;;6.43;;
66112;SDS011;52893;52.870;5.822;2023-10-19T08:02:30;10.57;;;5.20;;
66112;SDS011;52893;52.870;5.822;2023-10-19T08:05:00;10.93;;;5.60;;
66112;SDS011;52893;52.870;5.822;2023-10-19T08:07:31;10.57;;;5.32;;
66112;SDS011;52893;52.870;5.822;2023-10-19T08:10:00;11.40;;;5.10;;
66112;SDS011;52893;52.870;5.822;2023-10-19T08:12:28;10.32;;;5.65;;
66112;SDS011;52893;52.870;5.822;2023-10-19T08:14:56;12.45;;;5.97;;
66112;SDS011;52893;52.870;5.822;2023-10-19T08:17:23;14.20;;;5.50;;
66112;SDS011;52893;52.870;5.822;2023-10-19T08:19:50;9.95;;;5.00;;
66112;SDS011;52893;52.870;5.822;2023-10-19T08:22:18;13.63;;;7.18;;
66112;SDS011;52893;52.870;5.822;2023-10-19T08:24:46;10.95;;;5.57;;
66112;SDS011;52893;52.870;5.822;2023-10-19T08:27:15;15.35;;;5.90;;
66112;SDS011;52893;52.870;5.822;2023-10-19T08:29:43;17.88;;;5.70;;
66112;SDS011;52893;52.870;5.822;2023-10-19T08:32:10;12.80;;;6.30;;
66112;SDS011;52893;52.870;5.822;2023-10-19T08:34:37;11.38;;;5.57;;
66112;SDS011;52893;52.870;5.822;2023-10-19T08:37:06;13.65;;;5.55;;
66112;SDS011;52893;52.870;5.822;2023-10-19T08:39:33;11.63;;;5.75;;
66112;SDS011;52893;52.870;5.822;2023-10-19T08:42:03;11.40;;;5.30;;
66112;SDS011;52893;52.870;5.822;2023-10-19T08:44:31;11.63;;;5.90;;
66112;SDS011;52893;52.870;5.822;2023-10-19T08:46:58;12.77;;;5.70;;
66112;SDS011;52893;52.870;5.822;2023-10-19T08:49:25;9.70;;;4.22;;
66112;SDS011;52893;52.870;5.822;2023-10-19T08:51:53;9.77;;;5.82;;
66112;SDS011;52893;52.870;5.822;2023-10-19T08:54:21;9.75;;;5.53;;
66112;SDS011;52893;52.870;5.822;2023-10-19T08:56:48;11.98;;;5.90;;
66112;SDS011;52893;52.870;5.822;2023-10-19T08:59:17;12.88;;;5.40;;
66112;SDS011;52893;52.870;5.822;2023-10-19T09:01:44;11.80;;;6.10;;
66112;SDS011;52893;52.870;5.822;2023-10-19T09:04:12;11.30;;;5.35;;
66112;SDS011;52893;52.870;5.822;2023-10-19T09:06:42;8.30;;;4.18;;
66112;SDS011;52893;52.870;5.822;2023-10-19T09:09:10;9.60;;;5.00;;
66112;SDS011;52893;52.870;5.822;2023-10-19T09:11:42;12.25;;;5.90;;
66112;SDS011;52893;52.870;5.822;2023-10-19T09:14:09;9.30;;;4.70;;
66112;SDS011;52893;52.870;5.822;2023-10-19T09:16:40;11.20;;;5.63;;
66112;SDS011;52893;52.870;5.822;2023-10-19T09:19:24;10.32;;;5.65;;
66112;SDS011;52893;52.870;5.822;2023-10-19T09:22:04;15.10;;;5.10;;
66112;SDS011;52893;52.870;5.822;2023-10-19T09:24:33;16.05;;;5.95;;
66112;SDS011;52893;52.870;5.822;2023-10-19T09:27:02;8.57;;;4.93;;
66112;SDS011;52893;52.870;5.822;2023-10-19T09:29:31;11.77;;;5.10;;
66112;SDS011;52893;52.870;5.822;2023-10-19T09:31:59;10.38;;;4.90;;
66112;SDS011;52893;52.870;5.822;2023-10-19T09:34:29;13.10;;;5.63;;
66112;SDS011;52893;52.870;5.822;2023-10-19T09:36:58;16.98;;;6.22;;
66112;SDS011;52893;52.870;5.822;2023-10-19T09:39:27;7.05;;;3.53;;
66112;SDS011;52893;52.870;5.822;2023-10-19T09:44:32;13.05;;;5.70;;
66112;SDS011;52893;52.870;5.822;2023-10-19T09:47:09;14.43;;;5.72;;
66112;SDS011;52893;52.870;5.822;2023-10-19T09:49:39;11.95;;;5.40;;
66112;SDS011;52893;52.870;5.822;2023-10-19T09:52:08;10.93;;;5.68;;
66112;SDS011;52893;52.870;5.822;2023-10-19T09:54:40;9.88;;;5.15;;
66112;SDS011;52893;52.870;5.822;2023-10-19T09:57:17;14.15;;;4.97;;
66112;SDS011;52893;52.870;5.822;2023-10-19T09:59:49;17.63;;;5.47;;
66112;SDS011;52893;52.870;5.822;2023-10-19T10:02:22;10.05;;;5.47;;
66112;SDS011;52893;52.870;5.822;2023-10-19T10:04:50;13.30;;;5.57;;
66112;SDS011;52893;52.870;5.822;2023-10-19T10:07:17;23.67;;;7.05;;
66112;SDS011;52893;52.870;5.822;2023-10-19T10:09:44;12.27;;;5.63;;
66112;SDS011;52893;52.870;5.822;2023-10-19T10:12:16;11.98;;;5.30;;
66112;SDS011;52893;52.870;5.822;2023-10-19T10:17:30;12.55;;;5.28;;
66112;SDS011;52893;52.870;5.822;2023-10-19T10:23:15;12.20;;;5.35;;
66112;SDS011;52893;52.870;5.822;2023-10-19T10:25:47;11.93;;;5.97;;
66112;SDS011;52893;52.870;5.822;2023-10-19T10:28:15;13.07;;;6.53;;
66112;SDS011;52893;52.870;5.822;2023-10-19T10:33:50;14.57;;;7.25;;
66112;SDS011;52893;52.870;5.822;2023-10-19T10:36:20;15.45;;;6.85;;
66112;SDS011;52893;52.870;5.822;2023-10-19T10:38:48;20.80;;;6.35;;
66112;SDS011;52893;52.870;5.822;2023-10-19T10:41:19;10.80;;;5.13;;
66112;SDS011;52893;52.870;5.822;2023-10-19T10:43:51;14.13;;;6.57;;
66112;SDS011;52893;52.870;5.822;2023-10-19T10:46:23;15.43;;;6.35;;
66112;SDS011;52893;52.870;5.822;2023-10-19T10:48:52;17.13;;;6.25;;
66112;SDS011;52893;52.870;5.822;2023-10-19T10:51:20;14.15;;;5.68;;
66112;SDS011;52893;52.870;5.822;2023-10-19T10:53:49;12.18;;;5.88;;
66112;SDS011;52893;52.870;5.822;2023-10-19T10:56:17;12.30;;;5.50;;
66112;SDS011;52893;52.870;5.822;2023-10-19T10:58:46;8.00;;;4.35;;
66112;SDS011;52893;52.870;5.822;2023-10-19T11:01:15;13.57;;;5.40;;
66112;SDS011;52893;52.870;5.822;2023-10-19T11:04:06;10.93;;;5.30;;
66112;SDS011;52893;52.870;5.822;2023-10-19T11:06:45;8.25;;;3.97;;
66112;SDS011;52893;52.870;5.822;2023-10-19T11:09:14;15.63;;;5.78;;
66112;SDS011;52893;52.870;5.822;2023-10-19T11:11:44;12.50;;;5.70;;
66112;SDS011;52893;52.870;5.822;2023-10-19T11:14:11;15.30;;;5.45;;
66112;SDS011;52893;52.870;5.822;2023-10-19T11:16:39;14.40;;;6.40;;
66112;SDS011;52893;52.870;5.822;2023-10-19T11:19:07;14.35;;;5.85;;
66112;SDS011;52893;52.870;5.822;2023-10-19T11:21:35;13.55;;;5.68;;
66112;SDS011;52893;52.870;5.822;2023-10-19T11:24:03;10.65;;;5.38;;
66112;SDS011;52893;52.870;5.822;2023-10-19T11:26:39;18.45;;;6.82;;
66112;SDS011;52893;52.870;5.822;2023-10-19T11:29:06;13.57;;;5.60;;
66112;SDS011;52893;52.870;5.822;2023-10-19T11:31:35;16.25;;;6.82;;
66112;SDS011;52893;52.870;5.822;2023-10-19T11:34:05;11.80;;;4.53;;
66112;SDS011;52893;52.870;5.822;2023-10-19T11:36:36;15.45;;;5.95;;
66112;SDS011;52893;52.870;5.822;2023-10-19T11:39:04;13.05;;;6.22;;
66112;SDS011;52893;52.870;5.822;2023-10-19T11:44:04;15.02;;;6.25;;
66112;SDS011;52893;52.870;5.822;2023-10-19T11:46:31;11.85;;;6.45;;
66112;SDS011;52893;52.870;5.822;2023-10-19T11:48:59;12.98;;;6.25;;
66112;SDS011;52893;52.870;5.822;2023-10-19T11:51:29;10.55;;;4.78;;
66112;SDS011;52893;52.870;5.822;2023-10-19T11:53:58;9.40;;;5.35;;
66112;SDS011;52893;52.870;5.822;2023-10-19T11:56:25;13.65;;;6.50;;
66112;SDS011;52893;52.870;5.822;2023-10-19T11:58:53;13.82;;;6.47;;
66112;SDS011;52893;52.870;5.822;2023-10-19T12:01:20;13.85;;;6.63;;
66112;SDS011;52893;52.870;5.822;2023-10-19T12:03:47;11.95;;;5.82;;
66112;SDS011;52893;52.870;5.822;2023-10-19T12:06:15;14.52;;;6.45;;
66112;SDS011;52893;52.870;5.822;2023-10-19T12:08:45;12.57;;;5.82;;
66112;SDS011;52893;52.870;5.822;2023-10-19T12:11:14;17.42;;;5.90;;
66112;SDS011;52893;52.870;5.822;2023-10-19T12:13:42;15.48;;;6.35;;
66112;SDS011;52893;52.870;5.822;2023-10-19T12:16:10;17.77;;;6.25;;
66112;SDS011;52893;52.870;5.822;2023-10-19T12:18:38;10.00;;;5.38;;
66112;SDS011;52893;52.870;5.822;2023-10-19T12:21:05;12.07;;;5.93;;
66112;SDS011;52893;52.870;5.822;2023-10-19T12:23:38;11.95;;;5.72;;
66112;SDS011;52893;52.870;5.822;2023-10-19T12:26:06;12.70;;;6.03;;
66112;SDS011;52893;52.870;5.822;2023-10-19T12:28:38;9.98;;;5.50;;
66112;SDS011;52893;52.870;5.822;2023-10-19T12:31:06;15.65;;;6.38;;
66112;SDS011;52893;52.870;5.822;2023-10-19T12:33:34;13.00;;;5.45;;
66112;SDS011;52893;52.870;5.822;2023-10-19T12:36:02;11.75;;;5.43;;
66112;SDS011;52893;52.870;5.822;2023-10-19T12:38:48;11.48;;;5.38;;
66112;SDS011;52893;52.870;5.822;2023-10-19T12:41:16;9.73;;;5.70;;
66112;SDS011;52893;52.870;5.822;2023-10-19T12:43:46;12.85;;;6.03;;
66112;SDS011;52893;52.870;5.822;2023-10-19T12:46:13;16.65;;;6.60;;
66112;SDS011;52893;52.870;5.822;2023-10-19T12:48:41;15.77;;;6.30;;
66112;SDS011;52893;52.870;5.822;2023-10-19T12:51:09;15.07;;;7.68;;
66112;SDS011;52893;52.870;5.822;2023-10-19T12:53:37;21.20;;;7.53;;
66112;SDS011;52893;52.870;5.822;2023-10-19T12:56:05;15.20;;;6.25;;
66112;SDS011;52893;52.870;5.822;2023-10-19T12:58:33;16.25;;;7.03;;
66112;SDS011;52893;52.870;5.822;2023-10-19T13:01:02;17.98;;;6.53;;
66112;SDS011;52893;52.870;5.822;2023-10-19T13:03:31;16.85;;;6.68;;
66112;SDS011;52893;52.870;5.822;2023-10-19T13:05:58;15.68;;;7.03;;
66112;SDS011;52893;52.870;5.822;2023-10-19T13:08:29;12.38;;;6.43;;
66112;SDS011;52893;52.870;5.822;2023-10-19T13:10:57;17.75;;;7.90;;
66112;SDS011;52893;52.870;5.822;2023-10-19T13:13:25;15.77;;;6.80;;
66112;SDS011;52893;52.870;5.822;2023-10-19T13:15:53;18.38;;;6.85;;
66112;SDS011;52893;52.870;5.822;2023-10-19T13:18:21;13.63;;;6.30;;
66112;SDS011;52893;52.870;5.822;2023-10-19T13:20:53;18.80;;;7.35;;
66112;SDS011;52893;52.870;5.822;2023-10-19T13:23:21;15.57;;;6.60;;
66112;SDS011;52893;52.870;5.822;2023-10-19T13:25:48;11.50;;;6.22;;
66112;SDS011;52893;52.870;5.822;2023-10-19T13:28:19;8.10;;;4.18;;
66112;SDS011;52893;52.870;5.822;2023-10-19T13:30:48;10.15;;;5.18;;
66112;SDS011;52893;52.870;5.822;2023-10-19T13:33:16;12.43;;;6.03;;
66112;SDS011;52893;52.870;5.822;2023-10-19T13:35:48;10.68;;;4.72;;
66112;SDS011;52893;52.870;5.822;2023-10-19T13:38:17;17.38;;;7.05;;
66112;SDS011;52893;52.870;5.822;2023-10-19T13:40:45;19.65;;;6.53;;
66112;SDS011;52893;52.870;5.822;2023-10-19T13:43:13;11.60;;;5.32;;
66112;SDS011;52893;52.870;5.822;2023-10-19T13:45:57;13.07;;;5.50;;
66112;SDS011;52893;52.870;5.822;2023-10-19T13:48:25;12.90;;;5.03;;
66112;SDS011;52893;52.870;5.822;2023-10-19T13:50:54;15.73;;;6.43;;
66112;SDS011;52893;52.870;5.822;2023-10-19T13:53:26;12.95;;;5.53;;
66112;SDS011;52893;52.870;5.822;2023-10-19T13:55:53;13.43;;;6.28;;
66112;SDS011;52893;52.870;5.822;2023-10-19T13:58:21;15.35;;;5.28;;
66112;SDS011;52893;52.870;5.822;2023-10-19T14:00:49;12.07;;;5.53;;
66112;SDS011;52893;52.870;5.822;2023-10-19T14:03:16;16.90;;;6.53;;
66112;SDS011;52893;52.870;5.822;2023-10-19T14:05:44;15.02;;;6.53;;
66112;SDS011;52893;52.870;5.822;2023-10-19T14:08:16;14.50;;;6.15;;
66112;SDS011;52893;52.870;5.822;2023-10-19T14:10:46;10.55;;;5.40;;
66112;SDS011;52893;52.870;5.822;2023-10-19T14:13:13;11.55;;;5.55;;
66112;SDS011;52893;52.870;5.822;2023-10-19T14:15:41;12.60;;;5.93;;
66112;SDS011;52893;52.870;5.822;2023-10-19T14:18:09;17.88;;;6.15;;
66112;SDS011;52893;52.870;5.822;2023-10-19T14:20:37;7.82;;;4.60;;
66112;SDS011;52893;52.870;5.822;2023-10-19T14:23:06;15.13;;;6.35;;
66112;SDS011;52893;52.870;5.822;2023-10-19T14:25:37;7.70;;;4.78;;
66112;SDS011;52893;52.870;5.822;2023-10-19T14:28:05;13.70;;;5.88;;
66112;SDS011;52893;52.870;5.822;2023-10-19T14:30:33;15.98;;;6.30;;
66112;SDS011;52893;52.870;5.822;2023-10-19T14:33:01;16.83;;;7.15;;
66112;SDS011;52893;52.870;5.822;2023-10-19T14:35:30;18.20;;;5.90;;
66112;SDS011;52893;52.870;5.822;2023-10-19T14:37:58;11.40;;;5.57;;
66112;SDS011;52893;52.870;5.822;2023-10-19T14:40:27;14.43;;;6.03;;
66112;SDS011;52893;52.870;5.822;2023-10-19T14:42:58;14.40;;;6.30;;
66112;SDS011;52893;52.870;5.822;2023-10-19T14:45:27;15.23;;;6.80;;
66112;SDS011;52893;52.870;5.822;2023-10-19T14:47:55;15.27;;;6.22;;
66112;SDS011;52893;52.870;5.822;2023-10-19T14:50:24;17.42;;;7.18;;
66112;SDS011;52893;52.870;5.822;2023-10-19T14:52:53;13.73;;;6.00;;
66112;SDS011;52893;52.870;5.822;2023-10-19T14:55:22;20.15;;;6.75;;
66112;SDS011;52893;52.870;5.822;2023-10-19T14:57:50;13.02;;;5.03;;
66112;SDS011;52893;52.870;5.822;2023-10-19T15:00:21;10.98;;;6.13;;
66112;SDS011;52893;52.870;5.822;2023-10-19T15:02:52;11.70;;;6.40;;
66112;SDS011;52893;52.870;5.822;2023-10-19T15:05:21;11.50;;;5.82;;
66112;SDS011;52893;52.870;5.822;2023-10-19T15:07:50;18.85;;;6.90;;
66112;SDS011;52893;52.870;5.822;2023-10-19T15:10:19;20.60;;;7.13;;